<?xml version="1.0" encoding="UTF-8" standalone="no" ?>
<gpx xmlns="http://www.topografix.com/GPX/1/1" xmlns:xsi="http://www.w3.org/2001/XMLSchema-instance" xsi:schemaLocation="http://www.topografix.com/GPX/1/1 http://www.topografix.com/GPX/1/1/gpx.xsd" version="1.1" creator="VisuGPX - https://www.visugpx.com">
  <metadata>
    <name>Taurignan Gajan Chaumarti Lamarge Broué Ste Croix Cap d'Aoubi 3h43 2,6km/h</name>
  </metadata>
  <trk>
    <name><![CDATA[Taurignan Gajan Chaumarti Lamarge Broué Ste Croix Cap d'Aoubi 3h43 2,6km/h]]></name>
    <trkseg>
      <trkpt lat="43.02649" lon="1.11371">
        <ele>414</ele>
        <time>2022-01-23T13:53:47+01:00</time>
      </trkpt>
      <trkpt lat="43.02627" lon="1.11383">
        <ele>417</ele>
        <time>2022-01-23T13:54:05+01:00</time>
      </trkpt>
      <trkpt lat="43.02606" lon="1.11394">
        <ele>418</ele>
        <time>2022-01-23T13:54:26+01:00</time>
      </trkpt>
      <trkpt lat="43.02584" lon="1.11405">
        <ele>422</ele>
        <time>2022-01-23T13:54:48+01:00</time>
      </trkpt>
      <trkpt lat="43.02564" lon="1.11421">
        <ele>422</ele>
        <time>2022-01-23T13:55:06+01:00</time>
      </trkpt>
      <trkpt lat="43.02545" lon="1.11438">
        <ele>421</ele>
        <time>2022-01-23T13:55:27+01:00</time>
      </trkpt>
      <trkpt lat="43.02523" lon="1.11445">
        <ele>421</ele>
        <time>2022-01-23T13:55:48+01:00</time>
      </trkpt>
      <trkpt lat="43.02507" lon="1.11468">
        <ele>420</ele>
        <time>2022-01-23T13:56:09+01:00</time>
      </trkpt>
      <trkpt lat="43.02491" lon="1.11491">
        <ele>422</ele>
        <time>2022-01-23T13:56:30+01:00</time>
      </trkpt>
      <trkpt lat="43.02471" lon="1.11508">
        <ele>419</ele>
        <time>2022-01-23T13:56:50+01:00</time>
      </trkpt>
      <trkpt lat="43.02452" lon="1.11526">
        <ele>415</ele>
        <time>2022-01-23T13:57:14+01:00</time>
      </trkpt>
      <trkpt lat="43.02432" lon="1.11542">
        <ele>411</ele>
        <time>2022-01-23T13:57:36+01:00</time>
      </trkpt>
      <trkpt lat="43.02412" lon="1.11555">
        <ele>415</ele>
        <time>2022-01-23T13:57:55+01:00</time>
      </trkpt>
      <trkpt lat="43.02393" lon="1.11573">
        <ele>417</ele>
        <time>2022-01-23T13:58:17+01:00</time>
      </trkpt>
      <trkpt lat="43.02389" lon="1.11604">
        <ele>415</ele>
        <time>2022-01-23T13:58:46+01:00</time>
      </trkpt>
      <trkpt lat="43.02411" lon="1.11612">
        <ele>416</ele>
        <time>2022-01-23T13:59:08+01:00</time>
      </trkpt>
      <trkpt lat="43.02431" lon="1.11629">
        <ele>418</ele>
        <time>2022-01-23T13:59:32+01:00</time>
      </trkpt>
      <trkpt lat="43.02443" lon="1.11655">
        <ele>418</ele>
        <time>2022-01-23T13:59:55+01:00</time>
      </trkpt>
      <trkpt lat="43.02454" lon="1.11682">
        <ele>420</ele>
        <time>2022-01-23T14:00:18+01:00</time>
      </trkpt>
      <trkpt lat="43.02461" lon="1.11711">
        <ele>414</ele>
        <time>2022-01-23T14:02:09+01:00</time>
      </trkpt>
      <trkpt lat="43.02481" lon="1.11728">
        <ele>418</ele>
        <time>2022-01-23T14:02:32+01:00</time>
      </trkpt>
      <trkpt lat="43.02465" lon="1.1175">
        <ele>416</ele>
        <time>2022-01-23T14:02:56+01:00</time>
      </trkpt>
      <trkpt lat="43.02447" lon="1.11771">
        <ele>420</ele>
        <time>2022-01-23T14:03:15+01:00</time>
      </trkpt>
      <trkpt lat="43.02427" lon="1.11785">
        <ele>422</ele>
        <time>2022-01-23T14:03:40+01:00</time>
      </trkpt>
      <trkpt lat="43.02408" lon="1.11803">
        <ele>422</ele>
        <time>2022-01-23T14:04:05+01:00</time>
      </trkpt>
      <trkpt lat="43.02393" lon="1.11828">
        <ele>420</ele>
        <time>2022-01-23T14:04:25+01:00</time>
      </trkpt>
      <trkpt lat="43.0238" lon="1.11853">
        <ele>417</ele>
        <time>2022-01-23T14:04:48+01:00</time>
      </trkpt>
      <trkpt lat="43.02371" lon="1.11882">
        <ele>415</ele>
        <time>2022-01-23T14:05:10+01:00</time>
      </trkpt>
      <trkpt lat="43.02362" lon="1.11911">
        <ele>418</ele>
        <time>2022-01-23T14:05:36+01:00</time>
      </trkpt>
      <trkpt lat="43.02355" lon="1.11941">
        <ele>419</ele>
        <time>2022-01-23T14:05:58+01:00</time>
      </trkpt>
      <trkpt lat="43.02348" lon="1.11971">
        <ele>419</ele>
        <time>2022-01-23T14:06:24+01:00</time>
      </trkpt>
      <trkpt lat="43.02339" lon="1.12">
        <ele>417</ele>
        <time>2022-01-23T14:06:48+01:00</time>
      </trkpt>
      <trkpt lat="43.02331" lon="1.12029">
        <ele>420</ele>
        <time>2022-01-23T14:07:11+01:00</time>
      </trkpt>
      <trkpt lat="43.02321" lon="1.12057">
        <ele>421</ele>
        <time>2022-01-23T14:07:35+01:00</time>
      </trkpt>
      <trkpt lat="43.02309" lon="1.12085">
        <ele>420</ele>
        <time>2022-01-23T14:07:58+01:00</time>
      </trkpt>
      <trkpt lat="43.02299" lon="1.12114">
        <ele>419</ele>
        <time>2022-01-23T14:08:22+01:00</time>
      </trkpt>
      <trkpt lat="43.02287" lon="1.1214">
        <ele>419</ele>
        <time>2022-01-23T14:08:44+01:00</time>
      </trkpt>
      <trkpt lat="43.02275" lon="1.12167">
        <ele>421</ele>
        <time>2022-01-23T14:09:04+01:00</time>
      </trkpt>
      <trkpt lat="43.02262" lon="1.12194">
        <ele>421</ele>
        <time>2022-01-23T14:09:28+01:00</time>
      </trkpt>
      <trkpt lat="43.0225" lon="1.12221">
        <ele>421</ele>
        <time>2022-01-23T14:09:51+01:00</time>
      </trkpt>
      <trkpt lat="43.02238" lon="1.12248">
        <ele>421</ele>
        <time>2022-01-23T14:10:19+01:00</time>
      </trkpt>
      <trkpt lat="43.02226" lon="1.12275">
        <ele>418</ele>
        <time>2022-01-23T14:10:41+01:00</time>
      </trkpt>
      <trkpt lat="43.02217" lon="1.12303">
        <ele>421</ele>
        <time>2022-01-23T14:11:03+01:00</time>
      </trkpt>
      <trkpt lat="43.02207" lon="1.12332">
        <ele>422</ele>
        <time>2022-01-23T14:11:22+01:00</time>
      </trkpt>
      <trkpt lat="43.02205" lon="1.12363">
        <ele>422</ele>
        <time>2022-01-23T14:11:45+01:00</time>
      </trkpt>
      <trkpt lat="43.02201" lon="1.12395">
        <ele>419</ele>
        <time>2022-01-23T14:12:07+01:00</time>
      </trkpt>
      <trkpt lat="43.02218" lon="1.12416">
        <ele>422</ele>
        <time>2022-01-23T14:12:27+01:00</time>
      </trkpt>
      <trkpt lat="43.02239" lon="1.12428">
        <ele>423</ele>
        <time>2022-01-23T14:12:48+01:00</time>
      </trkpt>
      <trkpt lat="43.02258" lon="1.12443">
        <ele>422</ele>
        <time>2022-01-23T14:13:12+01:00</time>
      </trkpt>
      <trkpt lat="43.0228" lon="1.12456">
        <ele>422</ele>
        <time>2022-01-23T14:13:34+01:00</time>
      </trkpt>
      <trkpt lat="43.02301" lon="1.12471">
        <ele>422</ele>
        <time>2022-01-23T14:13:57+01:00</time>
      </trkpt>
      <trkpt lat="43.0232" lon="1.12488">
        <ele>418</ele>
        <time>2022-01-23T14:14:20+01:00</time>
      </trkpt>
      <trkpt lat="43.02343" lon="1.12493">
        <ele>421</ele>
        <time>2022-01-23T14:14:39+01:00</time>
      </trkpt>
      <trkpt lat="43.02364" lon="1.12503">
        <ele>423</ele>
        <time>2022-01-23T14:15:02+01:00</time>
      </trkpt>
      <trkpt lat="43.02381" lon="1.12525">
        <ele>424</ele>
        <time>2022-01-23T14:15:23+01:00</time>
      </trkpt>
      <trkpt lat="43.02395" lon="1.1255">
        <ele>425</ele>
        <time>2022-01-23T14:15:46+01:00</time>
      </trkpt>
      <trkpt lat="43.02406" lon="1.12578">
        <ele>423</ele>
        <time>2022-01-23T14:16:09+01:00</time>
      </trkpt>
      <trkpt lat="43.02422" lon="1.12602">
        <ele>426</ele>
        <time>2022-01-23T14:16:34+01:00</time>
      </trkpt>
      <trkpt lat="43.02435" lon="1.12627">
        <ele>424</ele>
        <time>2022-01-23T14:16:57+01:00</time>
      </trkpt>
      <trkpt lat="43.02456" lon="1.12641">
        <ele>422</ele>
        <time>2022-01-23T14:17:17+01:00</time>
      </trkpt>
      <trkpt lat="43.02478" lon="1.12652">
        <ele>424</ele>
        <time>2022-01-23T14:17:40+01:00</time>
      </trkpt>
      <trkpt lat="43.025" lon="1.12663">
        <ele>426</ele>
        <time>2022-01-23T14:18:02+01:00</time>
      </trkpt>
      <trkpt lat="43.02521" lon="1.12674">
        <ele>428</ele>
        <time>2022-01-23T14:18:25+01:00</time>
      </trkpt>
      <trkpt lat="43.02538" lon="1.12693">
        <ele>432</ele>
        <time>2022-01-23T14:18:49+01:00</time>
      </trkpt>
      <trkpt lat="43.02554" lon="1.12716">
        <ele>435</ele>
        <time>2022-01-23T14:19:11+01:00</time>
      </trkpt>
      <trkpt lat="43.0257" lon="1.12739">
        <ele>433</ele>
        <time>2022-01-23T14:19:34+01:00</time>
      </trkpt>
      <trkpt lat="43.02584" lon="1.12765">
        <ele>432</ele>
        <time>2022-01-23T14:20:00+01:00</time>
      </trkpt>
      <trkpt lat="43.02598" lon="1.1279">
        <ele>428</ele>
        <time>2022-01-23T14:20:25+01:00</time>
      </trkpt>
      <trkpt lat="43.02609" lon="1.12818">
        <ele>431</ele>
        <time>2022-01-23T14:20:48+01:00</time>
      </trkpt>
      <trkpt lat="43.02629" lon="1.12834">
        <ele>436</ele>
        <time>2022-01-23T14:21:10+01:00</time>
      </trkpt>
      <trkpt lat="43.02647" lon="1.12853">
        <ele>438</ele>
        <time>2022-01-23T14:21:38+01:00</time>
      </trkpt>
      <trkpt lat="43.02667" lon="1.12871">
        <ele>439</ele>
        <time>2022-01-23T14:22:08+01:00</time>
      </trkpt>
      <trkpt lat="43.02681" lon="1.12895">
        <ele>437</ele>
        <time>2022-01-23T14:22:30+01:00</time>
      </trkpt>
      <trkpt lat="43.02698" lon="1.12916">
        <ele>439</ele>
        <time>2022-01-23T14:22:54+01:00</time>
      </trkpt>
      <trkpt lat="43.02711" lon="1.12942">
        <ele>437</ele>
        <time>2022-01-23T14:23:15+01:00</time>
      </trkpt>
      <trkpt lat="43.02733" lon="1.12945">
        <ele>439</ele>
        <time>2022-01-23T14:23:44+01:00</time>
      </trkpt>
      <trkpt lat="43.02754" lon="1.12959">
        <ele>439</ele>
        <time>2022-01-23T14:24:11+01:00</time>
      </trkpt>
      <trkpt lat="43.02773" lon="1.12977">
        <ele>436</ele>
        <time>2022-01-23T14:25:25+01:00</time>
      </trkpt>
      <trkpt lat="43.02791" lon="1.12998">
        <ele>436</ele>
        <time>2022-01-23T14:25:54+01:00</time>
      </trkpt>
      <trkpt lat="43.02812" lon="1.1301">
        <ele>439</ele>
        <time>2022-01-23T14:26:20+01:00</time>
      </trkpt>
      <trkpt lat="43.02834" lon="1.13009">
        <ele>441</ele>
        <time>2022-01-23T14:26:57+01:00</time>
      </trkpt>
      <trkpt lat="43.02828" lon="1.13039">
        <ele>449</ele>
        <time>2022-01-23T14:28:29+01:00</time>
      </trkpt>
      <trkpt lat="43.02819" lon="1.13069">
        <ele>457</ele>
        <time>2022-01-23T14:29:34+01:00</time>
      </trkpt>
      <trkpt lat="43.02841" lon="1.13075">
        <ele>461</ele>
        <time>2022-01-23T14:30:18+01:00</time>
      </trkpt>
      <trkpt lat="43.02862" lon="1.1309">
        <ele>467</ele>
        <time>2022-01-23T14:30:43+01:00</time>
      </trkpt>
      <trkpt lat="43.02874" lon="1.13116">
        <ele>474</ele>
        <time>2022-01-23T14:31:16+01:00</time>
      </trkpt>
      <trkpt lat="43.02884" lon="1.13145">
        <ele>475</ele>
        <time>2022-01-23T14:31:51+01:00</time>
      </trkpt>
      <trkpt lat="43.02906" lon="1.13146">
        <ele>482</ele>
        <time>2022-01-23T14:33:14+01:00</time>
      </trkpt>
      <trkpt lat="43.02929" lon="1.13148">
        <ele>481</ele>
        <time>2022-01-23T14:35:34+01:00</time>
      </trkpt>
      <trkpt lat="43.02952" lon="1.13154">
        <ele>487</ele>
        <time>2022-01-23T14:36:14+01:00</time>
      </trkpt>
      <trkpt lat="43.02975" lon="1.1316">
        <ele>496</ele>
        <time>2022-01-23T14:36:59+01:00</time>
      </trkpt>
      <trkpt lat="43.02998" lon="1.13169">
        <ele>501</ele>
        <time>2022-01-23T14:37:59+01:00</time>
      </trkpt>
      <trkpt lat="43.03019" lon="1.1318">
        <ele>505</ele>
        <time>2022-01-23T14:39:05+01:00</time>
      </trkpt>
      <trkpt lat="43.0304" lon="1.1319">
        <ele>510</ele>
        <time>2022-01-23T14:39:25+01:00</time>
      </trkpt>
      <trkpt lat="43.03061" lon="1.13203">
        <ele>515</ele>
        <time>2022-01-23T14:40:10+01:00</time>
      </trkpt>
      <trkpt lat="43.03083" lon="1.13214">
        <ele>518</ele>
        <time>2022-01-23T14:40:58+01:00</time>
      </trkpt>
      <trkpt lat="43.03105" lon="1.13223">
        <ele>518</ele>
        <time>2022-01-23T14:41:34+01:00</time>
      </trkpt>
      <trkpt lat="43.03127" lon="1.13233">
        <ele>530</ele>
        <time>2022-01-23T14:43:13+01:00</time>
      </trkpt>
      <trkpt lat="43.0315" lon="1.13235">
        <ele>531</ele>
        <time>2022-01-23T14:43:46+01:00</time>
      </trkpt>
      <trkpt lat="43.03172" lon="1.13245">
        <ele>532</ele>
        <time>2022-01-23T14:44:19+01:00</time>
      </trkpt>
      <trkpt lat="43.03193" lon="1.13256">
        <ele>533</ele>
        <time>2022-01-23T14:44:45+01:00</time>
      </trkpt>
      <trkpt lat="43.03217" lon="1.13264">
        <ele>535</ele>
        <time>2022-01-23T14:45:30+01:00</time>
      </trkpt>
      <trkpt lat="43.0324" lon="1.1327">
        <ele>539</ele>
        <time>2022-01-23T14:45:56+01:00</time>
      </trkpt>
      <trkpt lat="43.0326" lon="1.13286">
        <ele>541</ele>
        <time>2022-01-23T14:46:15+01:00</time>
      </trkpt>
      <trkpt lat="43.03284" lon="1.13285">
        <ele>543</ele>
        <time>2022-01-23T14:46:55+01:00</time>
      </trkpt>
      <trkpt lat="43.03306" lon="1.13288">
        <ele>548</ele>
        <time>2022-01-23T14:47:51+01:00</time>
      </trkpt>
      <trkpt lat="43.03329" lon="1.13283">
        <ele>546</ele>
        <time>2022-01-23T14:48:29+01:00</time>
      </trkpt>
      <trkpt lat="43.03351" lon="1.13272">
        <ele>545</ele>
        <time>2022-01-23T14:49:46+01:00</time>
      </trkpt>
      <trkpt lat="43.03374" lon="1.13275">
        <ele>553</ele>
        <time>2022-01-23T14:51:30+01:00</time>
      </trkpt>
      <trkpt lat="43.03396" lon="1.13281">
        <ele>558</ele>
        <time>2022-01-23T14:52:19+01:00</time>
      </trkpt>
      <trkpt lat="43.03418" lon="1.13288">
        <ele>558</ele>
        <time>2022-01-23T14:52:52+01:00</time>
      </trkpt>
      <trkpt lat="43.0344" lon="1.13298">
        <ele>559</ele>
        <time>2022-01-23T14:53:45+01:00</time>
      </trkpt>
      <trkpt lat="43.03462" lon="1.13306">
        <ele>567</ele>
        <time>2022-01-23T14:54:15+01:00</time>
      </trkpt>
      <trkpt lat="43.03484" lon="1.13307">
        <ele>571</ele>
        <time>2022-01-23T14:55:03+01:00</time>
      </trkpt>
      <trkpt lat="43.03504" lon="1.13323">
        <ele>577</ele>
        <time>2022-01-23T14:55:40+01:00</time>
      </trkpt>
      <trkpt lat="43.03514" lon="1.13353">
        <ele>581</ele>
        <time>2022-01-23T14:56:16+01:00</time>
      </trkpt>
      <trkpt lat="43.03528" lon="1.13378">
        <ele>579</ele>
        <time>2022-01-23T14:56:48+01:00</time>
      </trkpt>
      <trkpt lat="43.03549" lon="1.13392">
        <ele>581</ele>
        <time>2022-01-23T14:57:22+01:00</time>
      </trkpt>
      <trkpt lat="43.03572" lon="1.13397">
        <ele>583</ele>
        <time>2022-01-23T14:58:08+01:00</time>
      </trkpt>
      <trkpt lat="43.03592" lon="1.13411">
        <ele>576</ele>
        <time>2022-01-23T14:58:36+01:00</time>
      </trkpt>
      <trkpt lat="43.03603" lon="1.1344">
        <ele>582</ele>
        <time>2022-01-23T14:59:20+01:00</time>
      </trkpt>
      <trkpt lat="43.03611" lon="1.1347">
        <ele>584</ele>
        <time>2022-01-23T14:59:43+01:00</time>
      </trkpt>
      <trkpt lat="43.03612" lon="1.13501">
        <ele>590</ele>
        <time>2022-01-23T15:00:21+01:00</time>
      </trkpt>
      <trkpt lat="43.03609" lon="1.13531">
        <ele>593</ele>
        <time>2022-01-23T15:00:49+01:00</time>
      </trkpt>
      <trkpt lat="43.03605" lon="1.13562">
        <ele>594</ele>
        <time>2022-01-23T15:01:24+01:00</time>
      </trkpt>
      <trkpt lat="43.03607" lon="1.13592">
        <ele>600</ele>
        <time>2022-01-23T15:05:18+01:00</time>
      </trkpt>
      <trkpt lat="43.03611" lon="1.13623">
        <ele>600</ele>
        <time>2022-01-23T15:05:44+01:00</time>
      </trkpt>
      <trkpt lat="43.03615" lon="1.13655">
        <ele>603</ele>
        <time>2022-01-23T15:06:14+01:00</time>
      </trkpt>
      <trkpt lat="43.03617" lon="1.13685">
        <ele>604</ele>
        <time>2022-01-23T15:06:44+01:00</time>
      </trkpt>
      <trkpt lat="43.03624" lon="1.13715">
        <ele>603</ele>
        <time>2022-01-23T15:07:10+01:00</time>
      </trkpt>
      <trkpt lat="43.03634" lon="1.13742">
        <ele>606</ele>
        <time>2022-01-23T15:07:34+01:00</time>
      </trkpt>
      <trkpt lat="43.03645" lon="1.1377">
        <ele>607</ele>
        <time>2022-01-23T15:08:13+01:00</time>
      </trkpt>
      <trkpt lat="43.0366" lon="1.13794">
        <ele>608</ele>
        <time>2022-01-23T15:08:39+01:00</time>
      </trkpt>
      <trkpt lat="43.03672" lon="1.13821">
        <ele>610</ele>
        <time>2022-01-23T15:09:09+01:00</time>
      </trkpt>
      <trkpt lat="43.03684" lon="1.13848">
        <ele>613</ele>
        <time>2022-01-23T15:09:39+01:00</time>
      </trkpt>
      <trkpt lat="43.0369" lon="1.13877">
        <ele>616</ele>
        <time>2022-01-23T15:10:10+01:00</time>
      </trkpt>
      <trkpt lat="43.03696" lon="1.13908">
        <ele>618</ele>
        <time>2022-01-23T15:10:40+01:00</time>
      </trkpt>
      <trkpt lat="43.03703" lon="1.13937">
        <ele>621</ele>
        <time>2022-01-23T15:11:08+01:00</time>
      </trkpt>
      <trkpt lat="43.03721" lon="1.13957">
        <ele>621</ele>
        <time>2022-01-23T15:11:39+01:00</time>
      </trkpt>
      <trkpt lat="43.03743" lon="1.13961">
        <ele>622</ele>
        <time>2022-01-23T15:12:11+01:00</time>
      </trkpt>
      <trkpt lat="43.03766" lon="1.13963">
        <ele>623</ele>
        <time>2022-01-23T15:12:39+01:00</time>
      </trkpt>
      <trkpt lat="43.03789" lon="1.13966">
        <ele>622</ele>
        <time>2022-01-23T15:13:05+01:00</time>
      </trkpt>
      <trkpt lat="43.03812" lon="1.13967">
        <ele>624</ele>
        <time>2022-01-23T15:13:36+01:00</time>
      </trkpt>
      <trkpt lat="43.03809" lon="1.13998">
        <ele>629</ele>
        <time>2022-01-23T15:14:14+01:00</time>
      </trkpt>
      <trkpt lat="43.03798" lon="1.14026">
        <ele>630</ele>
        <time>2022-01-23T15:15:02+01:00</time>
      </trkpt>
      <trkpt lat="43.03785" lon="1.14052">
        <ele>631</ele>
        <time>2022-01-23T15:15:51+01:00</time>
      </trkpt>
      <trkpt lat="43.03771" lon="1.14077">
        <ele>634</ele>
        <time>2022-01-23T15:16:19+01:00</time>
      </trkpt>
      <trkpt lat="43.0376" lon="1.14105">
        <ele>632</ele>
        <time>2022-01-23T15:16:46+01:00</time>
      </trkpt>
      <trkpt lat="43.03754" lon="1.14135">
        <ele>635</ele>
        <time>2022-01-23T15:17:09+01:00</time>
      </trkpt>
      <trkpt lat="43.03753" lon="1.14166">
        <ele>636</ele>
        <time>2022-01-23T15:17:35+01:00</time>
      </trkpt>
      <trkpt lat="43.03751" lon="1.14198">
        <ele>633</ele>
        <time>2022-01-23T15:18:33+01:00</time>
      </trkpt>
      <trkpt lat="43.0375" lon="1.14229">
        <ele>638</ele>
        <time>2022-01-23T15:19:06+01:00</time>
      </trkpt>
      <trkpt lat="43.03747" lon="1.1426">
        <ele>637</ele>
        <time>2022-01-23T15:19:29+01:00</time>
      </trkpt>
      <trkpt lat="43.03743" lon="1.1429">
        <ele>636</ele>
        <time>2022-01-23T15:19:50+01:00</time>
      </trkpt>
      <trkpt lat="43.0376" lon="1.14312">
        <ele>633</ele>
        <time>2022-01-23T15:20:15+01:00</time>
      </trkpt>
      <trkpt lat="43.03782" lon="1.14325">
        <ele>630</ele>
        <time>2022-01-23T15:20:35+01:00</time>
      </trkpt>
      <trkpt lat="43.03802" lon="1.14337">
        <ele>628</ele>
        <time>2022-01-23T15:20:56+01:00</time>
      </trkpt>
      <trkpt lat="43.03822" lon="1.14353">
        <ele>628</ele>
        <time>2022-01-23T15:21:17+01:00</time>
      </trkpt>
      <trkpt lat="43.03837" lon="1.14377">
        <ele>627</ele>
        <time>2022-01-23T15:21:39+01:00</time>
      </trkpt>
      <trkpt lat="43.03856" lon="1.14397">
        <ele>628</ele>
        <time>2022-01-23T15:22:03+01:00</time>
      </trkpt>
      <trkpt lat="43.0387" lon="1.14422">
        <ele>628</ele>
        <time>2022-01-23T15:22:24+01:00</time>
      </trkpt>
      <trkpt lat="43.03887" lon="1.14444">
        <ele>628</ele>
        <time>2022-01-23T15:22:46+01:00</time>
      </trkpt>
      <trkpt lat="43.03901" lon="1.14468">
        <ele>632</ele>
        <time>2022-01-23T15:23:07+01:00</time>
      </trkpt>
      <trkpt lat="43.03915" lon="1.14494">
        <ele>636</ele>
        <time>2022-01-23T15:23:28+01:00</time>
      </trkpt>
      <trkpt lat="43.03928" lon="1.1452">
        <ele>636</ele>
        <time>2022-01-23T15:23:52+01:00</time>
      </trkpt>
      <trkpt lat="43.03937" lon="1.14549">
        <ele>637</ele>
        <time>2022-01-23T15:24:15+01:00</time>
      </trkpt>
      <trkpt lat="43.03948" lon="1.14576">
        <ele>638</ele>
        <time>2022-01-23T15:24:37+01:00</time>
      </trkpt>
      <trkpt lat="43.03958" lon="1.14603">
        <ele>641</ele>
        <time>2022-01-23T15:25:00+01:00</time>
      </trkpt>
      <trkpt lat="43.03964" lon="1.14633">
        <ele>640</ele>
        <time>2022-01-23T15:25:24+01:00</time>
      </trkpt>
      <trkpt lat="43.03968" lon="1.14663">
        <ele>641</ele>
        <time>2022-01-23T15:25:52+01:00</time>
      </trkpt>
      <trkpt lat="43.03973" lon="1.14693">
        <ele>644</ele>
        <time>2022-01-23T15:26:18+01:00</time>
      </trkpt>
      <trkpt lat="43.03991" lon="1.14711">
        <ele>643</ele>
        <time>2022-01-23T15:26:50+01:00</time>
      </trkpt>
      <trkpt lat="43.04013" lon="1.14699">
        <ele>643</ele>
        <time>2022-01-23T15:27:17+01:00</time>
      </trkpt>
      <trkpt lat="43.04034" lon="1.14684">
        <ele>642</ele>
        <time>2022-01-23T15:27:40+01:00</time>
      </trkpt>
      <trkpt lat="43.04057" lon="1.14674">
        <ele>640</ele>
        <time>2022-01-23T15:28:06+01:00</time>
      </trkpt>
      <trkpt lat="43.04078" lon="1.14664">
        <ele>641</ele>
        <time>2022-01-23T15:28:32+01:00</time>
      </trkpt>
      <trkpt lat="43.04097" lon="1.14648">
        <ele>640</ele>
        <time>2022-01-23T15:28:59+01:00</time>
      </trkpt>
      <trkpt lat="43.04119" lon="1.14637">
        <ele>638</ele>
        <time>2022-01-23T15:29:20+01:00</time>
      </trkpt>
      <trkpt lat="43.0414" lon="1.14626">
        <ele>637</ele>
        <time>2022-01-23T15:29:41+01:00</time>
      </trkpt>
      <trkpt lat="43.04169" lon="1.1461">
        <ele>640</ele>
        <time>2022-01-23T15:44:15+01:00</time>
      </trkpt>
      <trkpt lat="43.0419" lon="1.14596">
        <ele>630</ele>
        <time>2022-01-23T15:44:32+01:00</time>
      </trkpt>
      <trkpt lat="43.04209" lon="1.14579">
        <ele>631</ele>
        <time>2022-01-23T15:44:49+01:00</time>
      </trkpt>
      <trkpt lat="43.04226" lon="1.14558">
        <ele>631</ele>
        <time>2022-01-23T15:45:07+01:00</time>
      </trkpt>
      <trkpt lat="43.04242" lon="1.14534">
        <ele>633</ele>
        <time>2022-01-23T15:45:24+01:00</time>
      </trkpt>
      <trkpt lat="43.04255" lon="1.14508">
        <ele>634</ele>
        <time>2022-01-23T15:45:41+01:00</time>
      </trkpt>
      <trkpt lat="43.04267" lon="1.14481">
        <ele>633</ele>
        <time>2022-01-23T15:45:58+01:00</time>
      </trkpt>
      <trkpt lat="43.04281" lon="1.14457">
        <ele>628</ele>
        <time>2022-01-23T15:46:17+01:00</time>
      </trkpt>
      <trkpt lat="43.04304" lon="1.14458">
        <ele>625</ele>
        <time>2022-01-23T15:46:34+01:00</time>
      </trkpt>
      <trkpt lat="43.04327" lon="1.14459">
        <ele>621</ele>
        <time>2022-01-23T15:46:55+01:00</time>
      </trkpt>
      <trkpt lat="43.0435" lon="1.14464">
        <ele>621</ele>
        <time>2022-01-23T15:47:11+01:00</time>
      </trkpt>
      <trkpt lat="43.04373" lon="1.14466">
        <ele>620</ele>
        <time>2022-01-23T15:47:32+01:00</time>
      </trkpt>
      <trkpt lat="43.04396" lon="1.14471">
        <ele>618</ele>
        <time>2022-01-23T15:47:50+01:00</time>
      </trkpt>
      <trkpt lat="43.04419" lon="1.14474">
        <ele>618</ele>
        <time>2022-01-23T15:48:07+01:00</time>
      </trkpt>
      <trkpt lat="43.04441" lon="1.1448">
        <ele>616</ele>
        <time>2022-01-23T15:48:23+01:00</time>
      </trkpt>
      <trkpt lat="43.04464" lon="1.14483">
        <ele>614</ele>
        <time>2022-01-23T15:48:41+01:00</time>
      </trkpt>
      <trkpt lat="43.04486" lon="1.1449">
        <ele>612</ele>
        <time>2022-01-23T15:49:06+01:00</time>
      </trkpt>
      <trkpt lat="43.04509" lon="1.14496">
        <ele>611</ele>
        <time>2022-01-23T15:49:26+01:00</time>
      </trkpt>
      <trkpt lat="43.04532" lon="1.14501">
        <ele>610</ele>
        <time>2022-01-23T15:49:45+01:00</time>
      </trkpt>
      <trkpt lat="43.04554" lon="1.14507">
        <ele>610</ele>
        <time>2022-01-23T15:50:03+01:00</time>
      </trkpt>
      <trkpt lat="43.04577" lon="1.14513">
        <ele>612</ele>
        <time>2022-01-23T15:50:21+01:00</time>
      </trkpt>
      <trkpt lat="43.04598" lon="1.14524">
        <ele>610</ele>
        <time>2022-01-23T15:50:40+01:00</time>
      </trkpt>
      <trkpt lat="43.0462" lon="1.14534">
        <ele>609</ele>
        <time>2022-01-23T15:50:57+01:00</time>
      </trkpt>
      <trkpt lat="43.04641" lon="1.14548">
        <ele>611</ele>
        <time>2022-01-23T15:51:17+01:00</time>
      </trkpt>
      <trkpt lat="43.0466" lon="1.14565">
        <ele>612</ele>
        <time>2022-01-23T15:51:38+01:00</time>
      </trkpt>
      <trkpt lat="43.04679" lon="1.14583">
        <ele>616</ele>
        <time>2022-01-23T15:51:58+01:00</time>
      </trkpt>
      <trkpt lat="43.04701" lon="1.14591">
        <ele>616</ele>
        <time>2022-01-23T15:52:15+01:00</time>
      </trkpt>
      <trkpt lat="43.04724" lon="1.14599">
        <ele>615</ele>
        <time>2022-01-23T15:52:33+01:00</time>
      </trkpt>
      <trkpt lat="43.04746" lon="1.14607">
        <ele>616</ele>
        <time>2022-01-23T15:52:49+01:00</time>
      </trkpt>
      <trkpt lat="43.04767" lon="1.14618">
        <ele>616</ele>
        <time>2022-01-23T15:53:07+01:00</time>
      </trkpt>
      <trkpt lat="43.0479" lon="1.14627">
        <ele>615</ele>
        <time>2022-01-23T15:53:27+01:00</time>
      </trkpt>
      <trkpt lat="43.04812" lon="1.14635">
        <ele>614</ele>
        <time>2022-01-23T15:53:47+01:00</time>
      </trkpt>
      <trkpt lat="43.04835" lon="1.14637">
        <ele>614</ele>
        <time>2022-01-23T15:54:05+01:00</time>
      </trkpt>
      <trkpt lat="43.04858" lon="1.14642">
        <ele>612</ele>
        <time>2022-01-23T15:54:23+01:00</time>
      </trkpt>
      <trkpt lat="43.04882" lon="1.14643">
        <ele>610</ele>
        <time>2022-01-23T15:54:41+01:00</time>
      </trkpt>
      <trkpt lat="43.04905" lon="1.14636">
        <ele>612</ele>
        <time>2022-01-23T15:55:01+01:00</time>
      </trkpt>
      <trkpt lat="43.04926" lon="1.14626">
        <ele>611</ele>
        <time>2022-01-23T15:55:21+01:00</time>
      </trkpt>
      <trkpt lat="43.04949" lon="1.14623">
        <ele>607</ele>
        <time>2022-01-23T15:55:39+01:00</time>
      </trkpt>
      <trkpt lat="43.04972" lon="1.14617">
        <ele>607</ele>
        <time>2022-01-23T15:55:57+01:00</time>
      </trkpt>
      <trkpt lat="43.04993" lon="1.14608">
        <ele>604</ele>
        <time>2022-01-23T15:56:16+01:00</time>
      </trkpt>
      <trkpt lat="43.05015" lon="1.14598">
        <ele>605</ele>
        <time>2022-01-23T15:56:36+01:00</time>
      </trkpt>
      <trkpt lat="43.05037" lon="1.14593">
        <ele>604</ele>
        <time>2022-01-23T15:56:59+01:00</time>
      </trkpt>
      <trkpt lat="43.05061" lon="1.14594">
        <ele>603</ele>
        <time>2022-01-23T15:57:18+01:00</time>
      </trkpt>
      <trkpt lat="43.05084" lon="1.14601">
        <ele>601</ele>
        <time>2022-01-23T15:57:37+01:00</time>
      </trkpt>
      <trkpt lat="43.05104" lon="1.14585">
        <ele>598</ele>
        <time>2022-01-23T15:58:04+01:00</time>
      </trkpt>
      <trkpt lat="43.05097" lon="1.14555">
        <ele>595</ele>
        <time>2022-01-23T15:58:23+01:00</time>
      </trkpt>
      <trkpt lat="43.0508" lon="1.14534">
        <ele>588</ele>
        <time>2022-01-23T15:58:43+01:00</time>
      </trkpt>
      <trkpt lat="43.05061" lon="1.14515">
        <ele>583</ele>
        <time>2022-01-23T15:59:03+01:00</time>
      </trkpt>
      <trkpt lat="43.05043" lon="1.14497">
        <ele>579</ele>
        <time>2022-01-23T15:59:20+01:00</time>
      </trkpt>
      <trkpt lat="43.05021" lon="1.14484">
        <ele>582</ele>
        <time>2022-01-23T15:59:39+01:00</time>
      </trkpt>
      <trkpt lat="43.04999" lon="1.14479">
        <ele>582</ele>
        <time>2022-01-23T15:59:59+01:00</time>
      </trkpt>
      <trkpt lat="43.04977" lon="1.14486">
        <ele>581</ele>
        <time>2022-01-23T16:00:17+01:00</time>
      </trkpt>
      <trkpt lat="43.04954" lon="1.14484">
        <ele>579</ele>
        <time>2022-01-23T16:00:38+01:00</time>
      </trkpt>
      <trkpt lat="43.0493" lon="1.14478">
        <ele>582</ele>
        <time>2022-01-23T16:00:58+01:00</time>
      </trkpt>
      <trkpt lat="43.04913" lon="1.14457">
        <ele>582</ele>
        <time>2022-01-23T16:01:23+01:00</time>
      </trkpt>
      <trkpt lat="43.04897" lon="1.14432">
        <ele>590</ele>
        <time>2022-01-23T16:01:41+01:00</time>
      </trkpt>
      <trkpt lat="43.04882" lon="1.14409">
        <ele>590</ele>
        <time>2022-01-23T16:02:01+01:00</time>
      </trkpt>
      <trkpt lat="43.04865" lon="1.14388">
        <ele>593</ele>
        <time>2022-01-23T16:02:20+01:00</time>
      </trkpt>
      <trkpt lat="43.04844" lon="1.14376">
        <ele>595</ele>
        <time>2022-01-23T16:02:37+01:00</time>
      </trkpt>
      <trkpt lat="43.04821" lon="1.14371">
        <ele>594</ele>
        <time>2022-01-23T16:02:58+01:00</time>
      </trkpt>
      <trkpt lat="43.04799" lon="1.14367">
        <ele>588</ele>
        <time>2022-01-23T16:03:14+01:00</time>
      </trkpt>
      <trkpt lat="43.04776" lon="1.14358">
        <ele>591</ele>
        <time>2022-01-23T16:03:35+01:00</time>
      </trkpt>
      <trkpt lat="43.04755" lon="1.14345">
        <ele>592</ele>
        <time>2022-01-23T16:03:54+01:00</time>
      </trkpt>
      <trkpt lat="43.04736" lon="1.14328">
        <ele>593</ele>
        <time>2022-01-23T16:04:12+01:00</time>
      </trkpt>
      <trkpt lat="43.04714" lon="1.14319">
        <ele>601</ele>
        <time>2022-01-23T16:04:33+01:00</time>
      </trkpt>
      <trkpt lat="43.04691" lon="1.14315">
        <ele>597</ele>
        <time>2022-01-23T16:04:54+01:00</time>
      </trkpt>
      <trkpt lat="43.04668" lon="1.14316">
        <ele>596</ele>
        <time>2022-01-23T16:05:16+01:00</time>
      </trkpt>
      <trkpt lat="43.04645" lon="1.14317">
        <ele>596</ele>
        <time>2022-01-23T16:05:33+01:00</time>
      </trkpt>
      <trkpt lat="43.04621" lon="1.14318">
        <ele>597</ele>
        <time>2022-01-23T16:05:51+01:00</time>
      </trkpt>
      <trkpt lat="43.04599" lon="1.1432">
        <ele>593</ele>
        <time>2022-01-23T16:06:09+01:00</time>
      </trkpt>
      <trkpt lat="43.04576" lon="1.1432">
        <ele>591</ele>
        <time>2022-01-23T16:06:28+01:00</time>
      </trkpt>
      <trkpt lat="43.04554" lon="1.14315">
        <ele>593</ele>
        <time>2022-01-23T16:06:47+01:00</time>
      </trkpt>
      <trkpt lat="43.04532" lon="1.14308">
        <ele>594</ele>
        <time>2022-01-23T16:07:05+01:00</time>
      </trkpt>
      <trkpt lat="43.0451" lon="1.14297">
        <ele>595</ele>
        <time>2022-01-23T16:07:24+01:00</time>
      </trkpt>
      <trkpt lat="43.04493" lon="1.14277">
        <ele>595</ele>
        <time>2022-01-23T16:07:45+01:00</time>
      </trkpt>
      <trkpt lat="43.04475" lon="1.14258">
        <ele>599</ele>
        <time>2022-01-23T16:08:03+01:00</time>
      </trkpt>
      <trkpt lat="43.04468" lon="1.14228">
        <ele>603</ele>
        <time>2022-01-23T16:08:24+01:00</time>
      </trkpt>
      <trkpt lat="43.04468" lon="1.14197">
        <ele>606</ele>
        <time>2022-01-23T16:08:43+01:00</time>
      </trkpt>
      <trkpt lat="43.04458" lon="1.14168">
        <ele>602</ele>
        <time>2022-01-23T16:09:02+01:00</time>
      </trkpt>
      <trkpt lat="43.04436" lon="1.14157">
        <ele>599</ele>
        <time>2022-01-23T16:09:23+01:00</time>
      </trkpt>
      <trkpt lat="43.04414" lon="1.14148">
        <ele>600</ele>
        <time>2022-01-23T16:09:44+01:00</time>
      </trkpt>
      <trkpt lat="43.04396" lon="1.14129">
        <ele>601</ele>
        <time>2022-01-23T16:10:05+01:00</time>
      </trkpt>
      <trkpt lat="43.04383" lon="1.14104">
        <ele>604</ele>
        <time>2022-01-23T16:10:25+01:00</time>
      </trkpt>
      <trkpt lat="43.04374" lon="1.14076">
        <ele>608</ele>
        <time>2022-01-23T16:10:44+01:00</time>
      </trkpt>
      <trkpt lat="43.04375" lon="1.14045">
        <ele>606</ele>
        <time>2022-01-23T16:11:04+01:00</time>
      </trkpt>
      <trkpt lat="43.04379" lon="1.14014">
        <ele>601</ele>
        <time>2022-01-23T16:11:24+01:00</time>
      </trkpt>
      <trkpt lat="43.04381" lon="1.13982">
        <ele>604</ele>
        <time>2022-01-23T16:11:46+01:00</time>
      </trkpt>
      <trkpt lat="43.04366" lon="1.13957">
        <ele>607</ele>
        <time>2022-01-23T16:12:08+01:00</time>
      </trkpt>
      <trkpt lat="43.04347" lon="1.13941">
        <ele>607</ele>
        <time>2022-01-23T16:12:31+01:00</time>
      </trkpt>
      <trkpt lat="43.04325" lon="1.1393">
        <ele>605</ele>
        <time>2022-01-23T16:12:48+01:00</time>
      </trkpt>
      <trkpt lat="43.04306" lon="1.13914">
        <ele>606</ele>
        <time>2022-01-23T16:13:09+01:00</time>
      </trkpt>
      <trkpt lat="43.04314" lon="1.13884">
        <ele>601</ele>
        <time>2022-01-23T16:13:28+01:00</time>
      </trkpt>
      <trkpt lat="43.0432" lon="1.13854">
        <ele>599</ele>
        <time>2022-01-23T16:13:52+01:00</time>
      </trkpt>
      <trkpt lat="43.0432" lon="1.13824">
        <ele>602</ele>
        <time>2022-01-23T16:14:37+01:00</time>
      </trkpt>
      <trkpt lat="43.04313" lon="1.13794">
        <ele>595</ele>
        <time>2022-01-23T16:15:02+01:00</time>
      </trkpt>
      <trkpt lat="43.04312" lon="1.13763">
        <ele>594</ele>
        <time>2022-01-23T16:15:29+01:00</time>
      </trkpt>
      <trkpt lat="43.04311" lon="1.13733">
        <ele>588</ele>
        <time>2022-01-23T16:15:50+01:00</time>
      </trkpt>
      <trkpt lat="43.04319" lon="1.13704">
        <ele>588</ele>
        <time>2022-01-23T16:16:46+01:00</time>
      </trkpt>
      <trkpt lat="43.04325" lon="1.13673">
        <ele>590</ele>
        <time>2022-01-23T16:17:05+01:00</time>
      </trkpt>
      <trkpt lat="43.04335" lon="1.13645">
        <ele>585</ele>
        <time>2022-01-23T16:17:28+01:00</time>
      </trkpt>
      <trkpt lat="43.04347" lon="1.13618">
        <ele>579</ele>
        <time>2022-01-23T16:17:51+01:00</time>
      </trkpt>
      <trkpt lat="43.04353" lon="1.13587">
        <ele>574</ele>
        <time>2022-01-23T16:18:29+01:00</time>
      </trkpt>
      <trkpt lat="43.0436" lon="1.13557">
        <ele>569</ele>
        <time>2022-01-23T16:18:56+01:00</time>
      </trkpt>
      <trkpt lat="43.04368" lon="1.13528">
        <ele>575</ele>
        <time>2022-01-23T16:19:48+01:00</time>
      </trkpt>
      <trkpt lat="43.04368" lon="1.13496">
        <ele>576</ele>
        <time>2022-01-23T16:20:08+01:00</time>
      </trkpt>
      <trkpt lat="43.04364" lon="1.13466">
        <ele>567</ele>
        <time>2022-01-23T16:20:34+01:00</time>
      </trkpt>
      <trkpt lat="43.04353" lon="1.13437">
        <ele>560</ele>
        <time>2022-01-23T16:20:54+01:00</time>
      </trkpt>
      <trkpt lat="43.04343" lon="1.13409">
        <ele>556</ele>
        <time>2022-01-23T16:21:16+01:00</time>
      </trkpt>
      <trkpt lat="43.04342" lon="1.13377">
        <ele>554</ele>
        <time>2022-01-23T16:21:43+01:00</time>
      </trkpt>
      <trkpt lat="43.04341" lon="1.13345">
        <ele>556</ele>
        <time>2022-01-23T16:22:11+01:00</time>
      </trkpt>
      <trkpt lat="43.04344" lon="1.13314">
        <ele>550</ele>
        <time>2022-01-23T16:22:43+01:00</time>
      </trkpt>
      <trkpt lat="43.04343" lon="1.13283">
        <ele>548</ele>
        <time>2022-01-23T16:23:03+01:00</time>
      </trkpt>
      <trkpt lat="43.04342" lon="1.13252">
        <ele>545</ele>
        <time>2022-01-23T16:23:31+01:00</time>
      </trkpt>
      <trkpt lat="43.04347" lon="1.13221">
        <ele>548</ele>
        <time>2022-01-23T16:23:56+01:00</time>
      </trkpt>
      <trkpt lat="43.04354" lon="1.13191">
        <ele>545</ele>
        <time>2022-01-23T16:24:30+01:00</time>
      </trkpt>
      <trkpt lat="43.04357" lon="1.13161">
        <ele>542</ele>
        <time>2022-01-23T16:24:50+01:00</time>
      </trkpt>
      <trkpt lat="43.04339" lon="1.13141">
        <ele>540</ele>
        <time>2022-01-23T16:25:15+01:00</time>
      </trkpt>
      <trkpt lat="43.04321" lon="1.13122">
        <ele>541</ele>
        <time>2022-01-23T16:25:36+01:00</time>
      </trkpt>
      <trkpt lat="43.04323" lon="1.1309">
        <ele>536</ele>
        <time>2022-01-23T16:25:58+01:00</time>
      </trkpt>
      <trkpt lat="43.04322" lon="1.13059">
        <ele>532</ele>
        <time>2022-01-23T16:26:18+01:00</time>
      </trkpt>
      <trkpt lat="43.04319" lon="1.13028">
        <ele>532</ele>
        <time>2022-01-23T16:27:07+01:00</time>
      </trkpt>
      <trkpt lat="43.0432" lon="1.12997">
        <ele>537</ele>
        <time>2022-01-23T16:27:51+01:00</time>
      </trkpt>
      <trkpt lat="43.04317" lon="1.12965">
        <ele>539</ele>
        <time>2022-01-23T16:28:12+01:00</time>
      </trkpt>
      <trkpt lat="43.04315" lon="1.12933">
        <ele>540</ele>
        <time>2022-01-23T16:28:47+01:00</time>
      </trkpt>
      <trkpt lat="43.04309" lon="1.12903">
        <ele>541</ele>
        <time>2022-01-23T16:29:10+01:00</time>
      </trkpt>
      <trkpt lat="43.04303" lon="1.12874">
        <ele>537</ele>
        <time>2022-01-23T16:29:31+01:00</time>
      </trkpt>
      <trkpt lat="43.04297" lon="1.12844">
        <ele>537</ele>
        <time>2022-01-23T16:29:53+01:00</time>
      </trkpt>
      <trkpt lat="43.04296" lon="1.12813">
        <ele>539</ele>
        <time>2022-01-23T16:30:14+01:00</time>
      </trkpt>
      <trkpt lat="43.04297" lon="1.12782">
        <ele>540</ele>
        <time>2022-01-23T16:30:59+01:00</time>
      </trkpt>
      <trkpt lat="43.04292" lon="1.12751">
        <ele>538</ele>
        <time>2022-01-23T16:31:20+01:00</time>
      </trkpt>
      <trkpt lat="43.04282" lon="1.12723">
        <ele>536</ele>
        <time>2022-01-23T16:31:41+01:00</time>
      </trkpt>
      <trkpt lat="43.04271" lon="1.12695">
        <ele>532</ele>
        <time>2022-01-23T16:32:02+01:00</time>
      </trkpt>
      <trkpt lat="43.04256" lon="1.12672">
        <ele>531</ele>
        <time>2022-01-23T16:32:25+01:00</time>
      </trkpt>
      <trkpt lat="43.04239" lon="1.1265">
        <ele>529</ele>
        <time>2022-01-23T16:32:43+01:00</time>
      </trkpt>
      <trkpt lat="43.04224" lon="1.12627">
        <ele>528</ele>
        <time>2022-01-23T16:33:02+01:00</time>
      </trkpt>
      <trkpt lat="43.0421" lon="1.12601">
        <ele>525</ele>
        <time>2022-01-23T16:33:20+01:00</time>
      </trkpt>
      <trkpt lat="43.04197" lon="1.12575">
        <ele>522</ele>
        <time>2022-01-23T16:33:39+01:00</time>
      </trkpt>
      <trkpt lat="43.04185" lon="1.12548">
        <ele>522</ele>
        <time>2022-01-23T16:34:01+01:00</time>
      </trkpt>
      <trkpt lat="43.04173" lon="1.12521">
        <ele>520</ele>
        <time>2022-01-23T16:34:20+01:00</time>
      </trkpt>
      <trkpt lat="43.04161" lon="1.12494">
        <ele>516</ele>
        <time>2022-01-23T16:34:40+01:00</time>
      </trkpt>
      <trkpt lat="43.04153" lon="1.12465">
        <ele>517</ele>
        <time>2022-01-23T16:35:16+01:00</time>
      </trkpt>
      <trkpt lat="43.04145" lon="1.12435">
        <ele>516</ele>
        <time>2022-01-23T16:35:40+01:00</time>
      </trkpt>
      <trkpt lat="43.0414" lon="1.12405">
        <ele>518</ele>
        <time>2022-01-23T16:36:00+01:00</time>
      </trkpt>
      <trkpt lat="43.04137" lon="1.12374">
        <ele>519</ele>
        <time>2022-01-23T16:36:36+01:00</time>
      </trkpt>
      <trkpt lat="43.04129" lon="1.12345">
        <ele>519</ele>
        <time>2022-01-23T16:36:56+01:00</time>
      </trkpt>
      <trkpt lat="43.04124" lon="1.12315">
        <ele>518</ele>
        <time>2022-01-23T16:37:18+01:00</time>
      </trkpt>
      <trkpt lat="43.04119" lon="1.12285">
        <ele>521</ele>
        <time>2022-01-23T16:37:38+01:00</time>
      </trkpt>
      <trkpt lat="43.0411" lon="1.12256">
        <ele>522</ele>
        <time>2022-01-23T16:37:57+01:00</time>
      </trkpt>
      <trkpt lat="43.04108" lon="1.12225">
        <ele>516</ele>
        <time>2022-01-23T16:38:20+01:00</time>
      </trkpt>
      <trkpt lat="43.041" lon="1.12195">
        <ele>508</ele>
        <time>2022-01-23T16:38:41+01:00</time>
      </trkpt>
      <trkpt lat="43.04095" lon="1.12165">
        <ele>503</ele>
        <time>2022-01-23T16:39:05+01:00</time>
      </trkpt>
      <trkpt lat="43.0409" lon="1.12134">
        <ele>507</ele>
        <time>2022-01-23T16:39:28+01:00</time>
      </trkpt>
      <trkpt lat="43.04086" lon="1.12103">
        <ele>509</ele>
        <time>2022-01-23T16:39:51+01:00</time>
      </trkpt>
      <trkpt lat="43.04074" lon="1.12077">
        <ele>506</ele>
        <time>2022-01-23T16:40:19+01:00</time>
      </trkpt>
      <trkpt lat="43.04056" lon="1.12057">
        <ele>508</ele>
        <time>2022-01-23T16:40:44+01:00</time>
      </trkpt>
      <trkpt lat="43.04034" lon="1.12046">
        <ele>516</ele>
        <time>2022-01-23T16:41:10+01:00</time>
      </trkpt>
      <trkpt lat="43.04012" lon="1.12041">
        <ele>516</ele>
        <time>2022-01-23T16:41:33+01:00</time>
      </trkpt>
      <trkpt lat="43.0399" lon="1.12036">
        <ele>516</ele>
        <time>2022-01-23T16:41:55+01:00</time>
      </trkpt>
      <trkpt lat="43.03967" lon="1.1204">
        <ele>511</ele>
        <time>2022-01-23T16:42:20+01:00</time>
      </trkpt>
      <trkpt lat="43.03943" lon="1.12044">
        <ele>506</ele>
        <time>2022-01-23T16:42:39+01:00</time>
      </trkpt>
      <trkpt lat="43.03921" lon="1.12053">
        <ele>505</ele>
        <time>2022-01-23T16:42:54+01:00</time>
      </trkpt>
      <trkpt lat="43.03901" lon="1.12068">
        <ele>505</ele>
        <time>2022-01-23T16:43:15+01:00</time>
      </trkpt>
      <trkpt lat="43.0388" lon="1.12082">
        <ele>505</ele>
        <time>2022-01-23T16:43:42+01:00</time>
      </trkpt>
      <trkpt lat="43.03857" lon="1.12078">
        <ele>506</ele>
        <time>2022-01-23T16:44:07+01:00</time>
      </trkpt>
      <trkpt lat="43.03833" lon="1.12079">
        <ele>508</ele>
        <time>2022-01-23T16:44:29+01:00</time>
      </trkpt>
      <trkpt lat="43.0381" lon="1.12075">
        <ele>512</ele>
        <time>2022-01-23T16:45:03+01:00</time>
      </trkpt>
      <trkpt lat="43.03786" lon="1.1207">
        <ele>514</ele>
        <time>2022-01-23T16:45:21+01:00</time>
      </trkpt>
      <trkpt lat="43.03763" lon="1.12072">
        <ele>512</ele>
        <time>2022-01-23T16:45:43+01:00</time>
      </trkpt>
      <trkpt lat="43.03742" lon="1.12081">
        <ele>509</ele>
        <time>2022-01-23T16:46:05+01:00</time>
      </trkpt>
      <trkpt lat="43.03719" lon="1.12087">
        <ele>507</ele>
        <time>2022-01-23T16:46:23+01:00</time>
      </trkpt>
      <trkpt lat="43.03697" lon="1.12094">
        <ele>505</ele>
        <time>2022-01-23T16:46:45+01:00</time>
      </trkpt>
      <trkpt lat="43.03676" lon="1.1211">
        <ele>504</ele>
        <time>2022-01-23T16:47:09+01:00</time>
      </trkpt>
      <trkpt lat="43.03657" lon="1.12126">
        <ele>507</ele>
        <time>2022-01-23T16:47:25+01:00</time>
      </trkpt>
      <trkpt lat="43.03641" lon="1.12148">
        <ele>507</ele>
        <time>2022-01-23T16:47:49+01:00</time>
      </trkpt>
      <trkpt lat="43.03624" lon="1.12169">
        <ele>506</ele>
        <time>2022-01-23T16:48:06+01:00</time>
      </trkpt>
      <trkpt lat="43.03611" lon="1.12196">
        <ele>505</ele>
        <time>2022-01-23T16:48:25+01:00</time>
      </trkpt>
      <trkpt lat="43.03595" lon="1.12219">
        <ele>506</ele>
        <time>2022-01-23T16:48:53+01:00</time>
      </trkpt>
      <trkpt lat="43.03579" lon="1.12242">
        <ele>508</ele>
        <time>2022-01-23T16:49:10+01:00</time>
      </trkpt>
      <trkpt lat="43.03563" lon="1.12266">
        <ele>508</ele>
        <time>2022-01-23T16:49:27+01:00</time>
      </trkpt>
      <trkpt lat="43.03543" lon="1.12282">
        <ele>507</ele>
        <time>2022-01-23T16:49:54+01:00</time>
      </trkpt>
      <trkpt lat="43.03531" lon="1.12308">
        <ele>505</ele>
        <time>2022-01-23T16:50:13+01:00</time>
      </trkpt>
      <trkpt lat="43.0352" lon="1.12335">
        <ele>502</ele>
        <time>2022-01-23T16:50:33+01:00</time>
      </trkpt>
      <trkpt lat="43.03504" lon="1.12358">
        <ele>506</ele>
        <time>2022-01-23T16:51:20+01:00</time>
      </trkpt>
      <trkpt lat="43.03487" lon="1.12379">
        <ele>509</ele>
        <time>2022-01-23T16:51:58+01:00</time>
      </trkpt>
      <trkpt lat="43.03466" lon="1.12393">
        <ele>509</ele>
        <time>2022-01-23T16:52:44+01:00</time>
      </trkpt>
      <trkpt lat="43.03445" lon="1.12404">
        <ele>510</ele>
        <time>2022-01-23T16:52:56+01:00</time>
      </trkpt>
      <trkpt lat="43.03424" lon="1.12418">
        <ele>507</ele>
        <time>2022-01-23T16:53:13+01:00</time>
      </trkpt>
      <trkpt lat="43.03402" lon="1.12428">
        <ele>506</ele>
        <time>2022-01-23T16:53:31+01:00</time>
      </trkpt>
      <trkpt lat="43.03379" lon="1.12421">
        <ele>507</ele>
        <time>2022-01-23T16:53:48+01:00</time>
      </trkpt>
      <trkpt lat="43.03358" lon="1.12411">
        <ele>506</ele>
        <time>2022-01-23T16:54:05+01:00</time>
      </trkpt>
      <trkpt lat="43.03337" lon="1.12397">
        <ele>507</ele>
        <time>2022-01-23T16:54:25+01:00</time>
      </trkpt>
      <trkpt lat="43.03316" lon="1.12381">
        <ele>506</ele>
        <time>2022-01-23T16:54:45+01:00</time>
      </trkpt>
      <trkpt lat="43.03295" lon="1.1237">
        <ele>505</ele>
        <time>2022-01-23T16:55:06+01:00</time>
      </trkpt>
      <trkpt lat="43.03272" lon="1.12364">
        <ele>507</ele>
        <time>2022-01-23T16:55:28+01:00</time>
      </trkpt>
      <trkpt lat="43.03249" lon="1.12367">
        <ele>513</ele>
        <time>2022-01-23T16:55:47+01:00</time>
      </trkpt>
      <trkpt lat="43.03227" lon="1.12372">
        <ele>514</ele>
        <time>2022-01-23T16:56:27+01:00</time>
      </trkpt>
      <trkpt lat="43.03208" lon="1.12353">
        <ele>518</ele>
        <time>2022-01-23T16:56:58+01:00</time>
      </trkpt>
      <trkpt lat="43.03186" lon="1.12343">
        <ele>518</ele>
        <time>2022-01-23T16:57:17+01:00</time>
      </trkpt>
      <trkpt lat="43.03164" lon="1.12334">
        <ele>523</ele>
        <time>2022-01-23T16:57:43+01:00</time>
      </trkpt>
      <trkpt lat="43.03142" lon="1.12332">
        <ele>527</ele>
        <time>2022-01-23T16:58:08+01:00</time>
      </trkpt>
      <trkpt lat="43.03121" lon="1.12318">
        <ele>530</ele>
        <time>2022-01-23T16:58:41+01:00</time>
      </trkpt>
      <trkpt lat="43.03124" lon="1.12287">
        <ele>533</ele>
        <time>2022-01-23T16:59:18+01:00</time>
      </trkpt>
      <trkpt lat="43.03127" lon="1.12257">
        <ele>542</ele>
        <time>2022-01-23T16:59:45+01:00</time>
      </trkpt>
      <trkpt lat="43.03135" lon="1.12227">
        <ele>545</ele>
        <time>2022-01-23T17:01:07+01:00</time>
      </trkpt>
      <trkpt lat="43.03139" lon="1.12197">
        <ele>549</ele>
        <time>2022-01-23T17:01:47+01:00</time>
      </trkpt>
      <trkpt lat="43.03145" lon="1.12166">
        <ele>552</ele>
        <time>2022-01-23T17:02:11+01:00</time>
      </trkpt>
      <trkpt lat="43.03151" lon="1.12135">
        <ele>554</ele>
        <time>2022-01-23T17:02:37+01:00</time>
      </trkpt>
      <trkpt lat="43.03159" lon="1.12105">
        <ele>556</ele>
        <time>2022-01-23T17:03:00+01:00</time>
      </trkpt>
      <trkpt lat="43.03171" lon="1.12078">
        <ele>559</ele>
        <time>2022-01-23T17:03:20+01:00</time>
      </trkpt>
      <trkpt lat="43.03188" lon="1.12055">
        <ele>559</ele>
        <time>2022-01-23T17:03:49+01:00</time>
      </trkpt>
      <trkpt lat="43.03203" lon="1.12031">
        <ele>557</ele>
        <time>2022-01-23T17:04:07+01:00</time>
      </trkpt>
      <trkpt lat="43.03216" lon="1.12004">
        <ele>554</ele>
        <time>2022-01-23T17:04:30+01:00</time>
      </trkpt>
      <trkpt lat="43.03235" lon="1.11987">
        <ele>550</ele>
        <time>2022-01-23T17:04:50+01:00</time>
      </trkpt>
      <trkpt lat="43.03244" lon="1.11958">
        <ele>547</ele>
        <time>2022-01-23T17:05:14+01:00</time>
      </trkpt>
      <trkpt lat="43.03259" lon="1.11934">
        <ele>547</ele>
        <time>2022-01-23T17:05:31+01:00</time>
      </trkpt>
      <trkpt lat="43.03283" lon="1.11929">
        <ele>542</ele>
        <time>2022-01-23T17:05:54+01:00</time>
      </trkpt>
      <trkpt lat="43.03305" lon="1.11938">
        <ele>539</ele>
        <time>2022-01-23T17:06:14+01:00</time>
      </trkpt>
      <trkpt lat="43.03325" lon="1.11923">
        <ele>540</ele>
        <time>2022-01-23T17:06:37+01:00</time>
      </trkpt>
      <trkpt lat="43.03344" lon="1.11905">
        <ele>539</ele>
        <time>2022-01-23T17:07:00+01:00</time>
      </trkpt>
      <trkpt lat="43.03352" lon="1.11875">
        <ele>539</ele>
        <time>2022-01-23T17:07:23+01:00</time>
      </trkpt>
      <trkpt lat="43.03359" lon="1.11846">
        <ele>533</ele>
        <time>2022-01-23T17:07:41+01:00</time>
      </trkpt>
      <trkpt lat="43.03372" lon="1.11819">
        <ele>535</ele>
        <time>2022-01-23T17:08:01+01:00</time>
      </trkpt>
      <trkpt lat="43.03391" lon="1.11801">
        <ele>536</ele>
        <time>2022-01-23T17:08:19+01:00</time>
      </trkpt>
      <trkpt lat="43.03405" lon="1.11774">
        <ele>540</ele>
        <time>2022-01-23T17:08:44+01:00</time>
      </trkpt>
      <trkpt lat="43.0341" lon="1.11743">
        <ele>537</ele>
        <time>2022-01-23T17:09:05+01:00</time>
      </trkpt>
      <trkpt lat="43.0342" lon="1.11714">
        <ele>542</ele>
        <time>2022-01-23T17:09:23+01:00</time>
      </trkpt>
      <trkpt lat="43.03421" lon="1.11684">
        <ele>543</ele>
        <time>2022-01-23T17:09:47+01:00</time>
      </trkpt>
      <trkpt lat="43.03426" lon="1.11652">
        <ele>540</ele>
        <time>2022-01-23T17:10:09+01:00</time>
      </trkpt>
      <trkpt lat="43.03433" lon="1.11622">
        <ele>538</ele>
        <time>2022-01-23T17:10:32+01:00</time>
      </trkpt>
      <trkpt lat="43.03445" lon="1.11596">
        <ele>534</ele>
        <time>2022-01-23T17:10:50+01:00</time>
      </trkpt>
      <trkpt lat="43.03463" lon="1.11577">
        <ele>535</ele>
        <time>2022-01-23T17:11:11+01:00</time>
      </trkpt>
      <trkpt lat="43.03481" lon="1.11557">
        <ele>532</ele>
        <time>2022-01-23T17:11:30+01:00</time>
      </trkpt>
      <trkpt lat="43.03495" lon="1.11532">
        <ele>532</ele>
        <time>2022-01-23T17:11:49+01:00</time>
      </trkpt>
      <trkpt lat="43.03501" lon="1.11502">
        <ele>531</ele>
        <time>2022-01-23T17:12:12+01:00</time>
      </trkpt>
      <trkpt lat="43.0351" lon="1.11474">
        <ele>527</ele>
        <time>2022-01-23T17:12:34+01:00</time>
      </trkpt>
      <trkpt lat="43.03517" lon="1.11444">
        <ele>525</ele>
        <time>2022-01-23T17:12:56+01:00</time>
      </trkpt>
      <trkpt lat="43.03524" lon="1.11414">
        <ele>524</ele>
        <time>2022-01-23T17:13:15+01:00</time>
      </trkpt>
      <trkpt lat="43.03532" lon="1.11385">
        <ele>523</ele>
        <time>2022-01-23T17:13:36+01:00</time>
      </trkpt>
      <trkpt lat="43.03539" lon="1.11355">
        <ele>516</ele>
        <time>2022-01-23T17:13:55+01:00</time>
      </trkpt>
      <trkpt lat="43.03548" lon="1.11326">
        <ele>513</ele>
        <time>2022-01-23T17:14:14+01:00</time>
      </trkpt>
      <trkpt lat="43.03558" lon="1.11297">
        <ele>513</ele>
        <time>2022-01-23T17:14:36+01:00</time>
      </trkpt>
      <trkpt lat="43.03565" lon="1.11267">
        <ele>509</ele>
        <time>2022-01-23T17:14:56+01:00</time>
      </trkpt>
      <trkpt lat="43.0356" lon="1.11235">
        <ele>508</ele>
        <time>2022-01-23T17:15:18+01:00</time>
      </trkpt>
      <trkpt lat="43.03545" lon="1.11212">
        <ele>506</ele>
        <time>2022-01-23T17:15:41+01:00</time>
      </trkpt>
      <trkpt lat="43.03538" lon="1.11241">
        <ele>505</ele>
        <time>2022-01-23T17:16:06+01:00</time>
      </trkpt>
      <trkpt lat="43.03523" lon="1.11266">
        <ele>499</ele>
        <time>2022-01-23T17:16:34+01:00</time>
      </trkpt>
      <trkpt lat="43.03501" lon="1.11274">
        <ele>498</ele>
        <time>2022-01-23T17:16:45+01:00</time>
      </trkpt>
      <trkpt lat="43.03485" lon="1.11296">
        <ele>499</ele>
        <time>2022-01-23T17:17:06+01:00</time>
      </trkpt>
      <trkpt lat="43.0347" lon="1.11319">
        <ele>501</ele>
        <time>2022-01-23T17:17:26+01:00</time>
      </trkpt>
      <trkpt lat="43.03453" lon="1.11341">
        <ele>495</ele>
        <time>2022-01-23T17:17:52+01:00</time>
      </trkpt>
      <trkpt lat="43.0343" lon="1.11352">
        <ele>493</ele>
        <time>2022-01-23T17:18:37+01:00</time>
      </trkpt>
      <trkpt lat="43.03418" lon="1.11324">
        <ele>502</ele>
        <time>2022-01-23T17:19:01+01:00</time>
      </trkpt>
      <trkpt lat="43.03419" lon="1.11292">
        <ele>496</ele>
        <time>2022-01-23T17:19:30+01:00</time>
      </trkpt>
      <trkpt lat="43.03409" lon="1.11264">
        <ele>494</ele>
        <time>2022-01-23T17:20:01+01:00</time>
      </trkpt>
      <trkpt lat="43.03387" lon="1.11253">
        <ele>489</ele>
        <time>2022-01-23T17:20:19+01:00</time>
      </trkpt>
      <trkpt lat="43.03364" lon="1.11244">
        <ele>484</ele>
        <time>2022-01-23T17:21:31+01:00</time>
      </trkpt>
      <trkpt lat="43.0338" lon="1.11222">
        <ele>482</ele>
        <time>2022-01-23T17:22:07+01:00</time>
      </trkpt>
      <trkpt lat="43.03358" lon="1.11211">
        <ele>474</ele>
        <time>2022-01-23T17:23:08+01:00</time>
      </trkpt>
      <trkpt lat="43.03336" lon="1.11208">
        <ele>473</ele>
        <time>2022-01-23T17:23:26+01:00</time>
      </trkpt>
      <trkpt lat="43.03313" lon="1.11218">
        <ele>469</ele>
        <time>2022-01-23T17:24:06+01:00</time>
      </trkpt>
      <trkpt lat="43.03299" lon="1.11242">
        <ele>472</ele>
        <time>2022-01-23T17:24:30+01:00</time>
      </trkpt>
      <trkpt lat="43.03289" lon="1.1127">
        <ele>471</ele>
        <time>2022-01-23T17:24:46+01:00</time>
      </trkpt>
      <trkpt lat="43.03272" lon="1.11294">
        <ele>468</ele>
        <time>2022-01-23T17:25:09+01:00</time>
      </trkpt>
      <trkpt lat="43.03259" lon="1.11321">
        <ele>464</ele>
        <time>2022-01-23T17:25:34+01:00</time>
      </trkpt>
      <trkpt lat="43.0324" lon="1.11337">
        <ele>460</ele>
        <time>2022-01-23T17:25:58+01:00</time>
      </trkpt>
      <trkpt lat="43.03223" lon="1.11357">
        <ele>456</ele>
        <time>2022-01-23T17:26:14+01:00</time>
      </trkpt>
      <trkpt lat="43.0321" lon="1.11382">
        <ele>452</ele>
        <time>2022-01-23T17:26:38+01:00</time>
      </trkpt>
      <trkpt lat="43.0319" lon="1.11398">
        <ele>444</ele>
        <time>2022-01-23T17:27:00+01:00</time>
      </trkpt>
      <trkpt lat="43.03169" lon="1.11409">
        <ele>442</ele>
        <time>2022-01-23T17:27:18+01:00</time>
      </trkpt>
      <trkpt lat="43.0315" lon="1.11427">
        <ele>438</ele>
        <time>2022-01-23T17:27:41+01:00</time>
      </trkpt>
      <trkpt lat="43.03134" lon="1.11449">
        <ele>438</ele>
        <time>2022-01-23T17:28:03+01:00</time>
      </trkpt>
      <trkpt lat="43.03115" lon="1.11469">
        <ele>435</ele>
        <time>2022-01-23T17:28:25+01:00</time>
      </trkpt>
      <trkpt lat="43.03094" lon="1.11483">
        <ele>433</ele>
        <time>2022-01-23T17:28:52+01:00</time>
      </trkpt>
      <trkpt lat="43.03071" lon="1.11485">
        <ele>431</ele>
        <time>2022-01-23T17:29:16+01:00</time>
      </trkpt>
      <trkpt lat="43.03048" lon="1.11477">
        <ele>423</ele>
        <time>2022-01-23T17:29:36+01:00</time>
      </trkpt>
      <trkpt lat="43.03026" lon="1.11469">
        <ele>424</ele>
        <time>2022-01-23T17:29:55+01:00</time>
      </trkpt>
      <trkpt lat="43.03006" lon="1.11455">
        <ele>422</ele>
        <time>2022-01-23T17:30:18+01:00</time>
      </trkpt>
      <trkpt lat="43.02985" lon="1.11442">
        <ele>425</ele>
        <time>2022-01-23T17:30:36+01:00</time>
      </trkpt>
      <trkpt lat="43.02963" lon="1.11431">
        <ele>423</ele>
        <time>2022-01-23T17:30:57+01:00</time>
      </trkpt>
      <trkpt lat="43.0294" lon="1.11426">
        <ele>421</ele>
        <time>2022-01-23T17:31:18+01:00</time>
      </trkpt>
      <trkpt lat="43.02917" lon="1.11428">
        <ele>422</ele>
        <time>2022-01-23T17:31:43+01:00</time>
      </trkpt>
      <trkpt lat="43.02896" lon="1.11441">
        <ele>418</ele>
        <time>2022-01-23T17:32:08+01:00</time>
      </trkpt>
      <trkpt lat="43.02878" lon="1.11461">
        <ele>420</ele>
        <time>2022-01-23T17:32:33+01:00</time>
      </trkpt>
      <trkpt lat="43.02856" lon="1.11456">
        <ele>420</ele>
        <time>2022-01-23T17:33:01+01:00</time>
      </trkpt>
      <trkpt lat="43.02841" lon="1.1143">
        <ele>421</ele>
        <time>2022-01-23T17:33:23+01:00</time>
      </trkpt>
      <trkpt lat="43.02825" lon="1.11408">
        <ele>419</ele>
        <time>2022-01-23T17:33:44+01:00</time>
      </trkpt>
      <trkpt lat="43.02814" lon="1.11379">
        <ele>418</ele>
        <time>2022-01-23T17:34:05+01:00</time>
      </trkpt>
      <trkpt lat="43.02796" lon="1.11359">
        <ele>413</ele>
        <time>2022-01-23T17:34:34+01:00</time>
      </trkpt>
      <trkpt lat="43.02774" lon="1.11347">
        <ele>416</ele>
        <time>2022-01-23T17:34:58+01:00</time>
      </trkpt>
      <trkpt lat="43.02764" lon="1.1132">
        <ele>419</ele>
        <time>2022-01-23T17:35:17+01:00</time>
      </trkpt>
      <trkpt lat="43.02743" lon="1.11307">
        <ele>416</ele>
        <time>2022-01-23T17:35:34+01:00</time>
      </trkpt>
      <trkpt lat="43.0272" lon="1.11318">
        <ele>420</ele>
        <time>2022-01-23T17:36:04+01:00</time>
      </trkpt>
      <trkpt lat="43.02703" lon="1.1134">
        <ele>422</ele>
        <time>2022-01-23T17:36:33+01:00</time>
      </trkpt>
      <trkpt lat="43.02686" lon="1.11361">
        <ele>419</ele>
        <time>2022-01-23T17:36:50+01:00</time>
      </trkpt>
    </trkseg>
  </trk>
</gpx>